createdAt,value
2018-07-11T00:00:36.542Z,41.63
2018-07-11T00:03:05.841Z,40.15
2018-07-11T00:05:35.071Z,41.42
2018-07-11T00:08:04.129Z,40.15
2018-07-11T00:10:33.942Z,36.13
2018-07-11T00:13:03.102Z,35.50
2018-07-11T00:15:32.403Z,38.23
2018-07-11T00:18:01.600Z,32.73
2018-07-11T00:20:30.924Z,36.17
2018-07-11T00:23:00.169Z,33.88
2018-07-11T00:25:29.353Z,29.92
2018-07-11T00:27:58.110Z,31.23
2018-07-11T00:30:27.506Z,32.83
2018-07-11T00:32:56.605Z,26.80
2018-07-11T00:35:25.830Z,26.27
2018-07-11T00:37:54.556Z,21.77
2018-07-11T00:40:23.741Z,18.15
2018-07-11T00:42:53.049Z,18.92
2018-07-11T00:45:23.048Z,18.00
2018-07-11T00:47:53.007Z,16.57
2018-07-11T00:50:22.225Z,14.50
2018-07-11T00:52:51.395Z,14.03
2018-07-11T00:55:20.394Z,13.30
2018-07-11T00:57:49.503Z,13.62
2018-07-11T01:00:18.457Z,13.68
2018-07-11T01:02:48.094Z,11.80
2018-07-11T01:05:17.064Z,13.20
2018-07-11T01:07:46.661Z,12.43
2018-07-11T01:10:15.840Z,12.07
2018-07-11T01:12:45.539Z,15.50
2018-07-11T01:15:15.157Z,19.52
2018-07-11T01:17:49.666Z,19.20
2018-07-11T01:20:19.042Z,19.45
2018-07-11T01:22:48.127Z,16.25
2018-07-11T01:25:17.248Z,16.40
2018-07-11T01:27:46.506Z,15.38
2018-07-11T01:30:15.633Z,15.00
2018-07-11T01:32:44.740Z,15.32
2018-07-11T01:35:14.759Z,12.47
2018-07-11T01:37:43.848Z,12.10
2018-07-11T01:40:13.158Z,12.18
2018-07-11T01:42:42.241Z,13.72
2018-07-11T01:45:12.074Z,12.73
2018-07-11T01:47:41.239Z,13.62
2018-07-11T01:50:10.533Z,13.95
2018-07-11T01:52:50.820Z,15.20
2018-07-11T01:55:20.092Z,15.38
2018-07-11T01:57:50.055Z,14.40
2018-07-11T02:00:20.039Z,15.40
2018-07-11T02:02:49.751Z,15.75
2018-07-11T02:05:19.018Z,18.15
2018-07-11T02:07:48.020Z,18.80
2018-07-11T02:10:17.032Z,18.67
2018-07-11T02:12:46.048Z,19.10
2018-07-11T02:15:14.983Z,17.85
2018-07-11T02:17:44.003Z,18.60
2018-07-11T02:20:15.024Z,17.85
2018-07-11T02:22:44.269Z,20.65
2018-07-11T02:25:15.588Z,25.95
2018-07-11T02:27:44.899Z,21.65
2018-07-11T02:30:14.081Z,21.52
2018-07-11T02:32:44.093Z,20.23
2018-07-11T02:35:13.296Z,20.27
2018-07-11T02:37:42.379Z,20.17
2018-07-11T02:40:11.571Z,21.80
2018-07-11T02:42:41.999Z,19.37
2018-07-11T02:45:10.992Z,18.85
2018-07-11T02:47:42.375Z,24.67
2018-07-11T02:50:12.352Z,23.10
2018-07-11T02:52:41.827Z,22.70
2018-07-11T02:55:11.026Z,21.02
2018-07-11T02:57:40.229Z,28.15
2018-07-11T03:00:09.490Z,23.40
2018-07-11T03:02:38.683Z,26.80
2018-07-11T03:05:07.701Z,24.02
2018-07-11T03:07:36.885Z,21.45
2018-07-11T03:10:06.285Z,22.37
2018-07-11T03:12:36.102Z,24.67
2018-07-11T03:15:05.259Z,25.30
2018-07-11T03:17:34.631Z,25.72
2018-07-11T03:20:04.377Z,23.40
2018-07-11T03:22:33.427Z,25.82
2018-07-11T03:25:02.392Z,25.40
2018-07-11T03:27:31.395Z,29.80
2018-07-11T03:30:00.349Z,31.23
2018-07-11T03:32:29.250Z,30.02
2018-07-11T03:34:58.333Z,31.15
2018-07-11T03:37:27.405Z,30.80
2018-07-11T03:39:56.070Z,32.50
2018-07-11T03:42:26.074Z,28.95
2018-07-11T03:44:55.688Z,35.30
2018-07-11T03:47:25.043Z,30.17
2018-07-11T03:49:54.136Z,30.82
2018-07-11T03:52:23.308Z,31.10
2018-07-11T03:54:53.136Z,34.38
2018-07-11T03:57:22.558Z,33.75
2018-07-11T03:59:52.460Z,33.00
2018-07-11T04:02:21.645Z,31.68
2018-07-11T04:04:51.069Z,36.10
2018-07-11T04:07:20.404Z,35.70
2018-07-11T04:09:49.516Z,37.03
2018-07-11T04:12:18.591Z,37.10
2018-07-11T04:14:47.701Z,32.25
2018-07-11T04:17:16.777Z,33.78
2018-07-11T04:19:45.992Z,40.60
2018-07-11T04:22:15.654Z,33.53
2018-07-11T04:24:44.746Z,37.23
2018-07-11T04:27:14.113Z,32.42
2018-07-11T04:29:43.412Z,32.28
2018-07-11T04:32:12.441Z,35.38
2018-07-11T04:34:41.548Z,30.20
2018-07-11T04:37:10.905Z,30.68
2018-07-11T04:39:39.955Z,37.13
2018-07-11T04:42:09.060Z,30.27
2018-07-11T04:44:38.093Z,34.75
2018-07-11T04:47:07.038Z,31.30
2018-07-11T04:49:35.674Z,34.13
2018-07-11T04:52:04.831Z,38.55
2018-07-11T04:54:35.159Z,34.98
2018-07-11T04:57:04.555Z,43.28
2018-07-11T04:59:33.785Z,36.85
2018-07-11T05:02:03.471Z,36.17
2018-07-11T05:04:32.883Z,38.00
2018-07-11T05:07:02.790Z,41.20
2018-07-11T05:09:31.901Z,43.23
2018-07-11T05:12:00.935Z,41.95
2018-07-11T05:14:30.072Z,38.88
2018-07-11T05:16:59.144Z,38.75
2018-07-11T05:19:28.128Z,45.38
2018-07-11T05:21:57.352Z,41.40
2018-07-11T05:24:26.664Z,41.55
2018-07-11T05:26:56.444Z,40.92
2018-07-11T05:29:25.473Z,40.33
2018-07-11T05:31:55.773Z,47.43
2018-07-11T05:34:25.430Z,39.25
2018-07-11T05:36:54.644Z,37.50
2018-07-11T05:39:24.223Z,51.08
2018-07-11T05:41:53.796Z,45.48
2018-07-11T05:44:22.980Z,46.33
2018-07-11T05:46:56.267Z,40.55
2018-07-11T05:49:25.196Z,44.88
2018-07-11T05:51:54.073Z,46.13
2018-07-11T05:54:22.985Z,48.25
2018-07-11T05:56:52.046Z,44.65
2018-07-11T05:59:21.005Z,41.65
2018-07-11T06:01:49.873Z,46.68
2018-07-11T06:04:18.914Z,41.30
2018-07-11T06:06:48.294Z,36.05
2018-07-11T06:09:17.392Z,39.13
2018-07-11T06:11:46.570Z,41.75
2018-07-11T06:14:15.665Z,36.23
2018-07-11T06:16:44.969Z,43.25
2018-07-11T06:19:14.164Z,35.63
2018-07-11T06:21:45.024Z,31.95
2018-07-11T06:24:15.468Z,29.60
2018-07-11T06:26:44.628Z,29.72
2018-07-11T06:29:13.809Z,23.62
2018-07-11T06:31:43.015Z,21.80
2018-07-11T06:34:12.229Z,19.10
2018-07-11T06:36:41.284Z,20.20
2018-07-11T06:39:10.449Z,18.80
2018-07-11T06:41:39.830Z,19.12
2018-07-11T06:44:10.717Z,19.75
2018-07-11T06:46:39.910Z,21.50
2018-07-11T06:49:09.246Z,20.10
2018-07-11T06:51:38.279Z,17.42
2018-07-11T06:54:07.263Z,16.20
2018-07-11T06:56:36.928Z,19.42
2018-07-11T06:59:06.099Z,22.02
2018-07-11T07:01:35.181Z,22.87
2018-07-11T07:04:04.113Z,18.75
2018-07-11T07:06:33.126Z,20.27
2018-07-11T07:09:02.069Z,21.20
2018-07-11T07:11:30.920Z,18.80
2018-07-11T07:13:59.795Z,20.17
2018-07-11T07:16:28.717Z,22.00
2018-07-11T07:18:57.620Z,21.87
2018-07-11T07:21:26.737Z,21.60
2018-07-11T07:23:55.975Z,18.75
2018-07-11T07:26:25.932Z,18.50
2018-07-11T07:28:55.442Z,22.52
2018-07-11T07:31:24.614Z,17.23
2018-07-11T07:33:53.675Z,15.85
2018-07-11T07:36:22.317Z,17.20
2018-07-11T07:38:51.307Z,20.00
2018-07-11T07:41:21.631Z,16.25
2018-07-11T07:43:51.499Z,18.70
2018-07-11T07:46:21.589Z,17.10
2018-07-11T07:48:51.268Z,16.50
2018-07-11T07:51:20.937Z,14.10
2018-07-11T07:53:50.168Z,14.07
2018-07-11T07:56:19.312Z,17.57
2018-07-11T07:58:48.561Z,13.60
2018-07-11T08:01:18.368Z,14.58
2018-07-11T08:03:47.528Z,13.65
2018-07-11T08:06:16.662Z,13.62
2018-07-11T08:08:45.621Z,12.82
2018-07-11T08:11:14.912Z,15.13
2018-07-11T08:13:44.157Z,13.78
2018-07-11T08:16:13.233Z,14.50
2018-07-11T08:18:43.710Z,14.15
2018-07-11T08:21:12.649Z,14.13
2018-07-11T08:23:52.448Z,14.93
2018-07-11T08:26:32.376Z,16.85
2018-07-11T08:30:43.165Z,13.93
2018-07-11T08:34:25.404Z,16.55
2018-07-11T08:37:09.240Z,14.07
2018-07-11T08:40:04.877Z,13.55
2018-07-11T08:42:58.133Z,13.95
2018-07-11T08:46:13.473Z,16.45
2018-07-11T08:48:53.668Z,16.07
2018-07-11T08:53:40.279Z,14.00
2018-07-11T08:56:24.775Z,14.40
2018-07-11T08:59:38.185Z,12.82
2018-07-11T09:04:17.406Z,17.60
2018-07-11T09:06:59.607Z,16.67
2018-07-11T09:09:56.093Z,13.48
2018-07-11T09:12:46.022Z,13.55
2018-07-11T09:19:33.877Z,12.35
2018-07-11T09:24:17.426Z,12.37
2018-07-11T09:26:46.414Z,10.85
2018-07-11T09:29:15.740Z,10.90
2018-07-11T09:31:44.911Z,13.10
2018-07-11T09:34:13.862Z,12.30
2018-07-11T09:36:42.784Z,11.35
2018-07-11T09:39:11.705Z,13.60
2018-07-11T09:41:40.675Z,13.85
2018-07-11T09:44:09.588Z,13.93
2018-07-11T09:46:38.613Z,12.58
2018-07-11T09:49:08.069Z,13.43
2018-07-11T09:51:38.274Z,13.00
2018-07-11T09:54:07.355Z,12.60
2018-07-11T09:56:36.581Z,13.93
2018-07-11T09:59:05.643Z,13.70
2018-07-11T10:01:34.804Z,12.82
2018-07-11T10:04:05.163Z,12.58
2018-07-11T10:06:34.324Z,12.37
2018-07-11T10:09:04.100Z,13.68
2018-07-11T10:11:33.009Z,14.53
2018-07-11T10:14:02.427Z,11.10
2018-07-11T10:16:31.359Z,12.37
2018-07-11T10:19:06.855Z,13.18
2018-07-11T10:21:36.031Z,14.45
2018-07-11T10:24:05.111Z,13.55
2018-07-11T10:26:34.126Z,13.95
2018-07-11T10:29:03.137Z,12.15
2018-07-11T10:31:32.084Z,12.55
2018-07-11T10:34:01.524Z,13.60
2018-07-11T10:36:30.460Z,14.10
2018-07-11T10:38:59.575Z,13.28
2018-07-11T10:41:28.650Z,13.88
2018-07-11T10:43:57.749Z,11.73
2018-07-11T10:46:26.808Z,12.90
2018-07-11T10:48:55.650Z,12.73
2018-07-11T10:51:24.673Z,13.90
2018-07-11T10:53:53.601Z,14.28
2018-07-11T10:56:22.488Z,12.80
2018-07-11T10:58:51.497Z,13.60
2018-07-11T11:01:20.548Z,15.00
2018-07-11T11:03:49.381Z,13.10
2018-07-11T11:06:18.400Z,14.58
2018-07-11T11:08:47.540Z,14.47
2018-07-11T11:11:16.788Z,15.13
2018-07-11T11:13:45.717Z,13.72
2018-07-11T11:16:14.664Z,14.05
2018-07-11T11:18:44.323Z,12.20
2018-07-11T11:21:13.396Z,14.73
2018-07-11T11:23:42.673Z,14.50
2018-07-11T11:26:11.972Z,13.35
2018-07-11T11:28:41.309Z,14.95
2018-07-11T11:31:10.453Z,12.43
2018-07-11T11:33:39.568Z,13.10
2018-07-11T11:36:08.735Z,13.48
2018-07-11T11:38:37.928Z,13.80
2018-07-11T11:41:07.168Z,13.58
2018-07-11T11:43:36.319Z,13.70
2018-07-11T11:46:05.525Z,13.40
2018-07-11T11:48:34.583Z,14.30
2018-07-11T11:51:03.816Z,15.53
2018-07-11T11:53:32.925Z,11.88
2018-07-11T11:56:01.991Z,13.55
2018-07-11T11:58:31.198Z,12.58
2018-07-11T12:01:00.260Z,12.95
2018-07-11T12:03:29.181Z,14.18
2018-07-11T12:05:58.112Z,13.10
2018-07-11T12:08:27.067Z,12.13
2018-07-11T12:10:55.948Z,13.28
2018-07-11T12:13:24.845Z,13.90
2018-07-11T12:15:53.700Z,12.40
2018-07-11T12:18:23.125Z,12.45
2018-07-11T12:20:52.308Z,11.83
2018-07-11T12:23:21.338Z,13.28
2018-07-11T12:26:05.312Z,13.15
2018-07-11T12:28:34.357Z,12.88
2018-07-11T12:31:04.264Z,12.35
2018-07-11T12:33:33.488Z,10.45
2018-07-11T12:36:02.786Z,12.10
2018-07-11T12:38:32.789Z,10.85
2018-07-11T12:41:02.515Z,11.43
2018-07-11T12:43:31.808Z,9.63
2018-07-11T12:46:00.886Z,10.08
2018-07-11T12:48:35.304Z,9.70
2018-07-11T12:51:04.571Z,10.03
2018-07-11T12:53:33.868Z,11.50
2018-07-11T12:56:02.875Z,10.80
2018-07-11T12:58:32.925Z,13.05
2018-07-11T13:01:02.377Z,11.22
2018-07-11T13:03:31.574Z,12.75
2018-07-11T13:06:00.740Z,10.28
2018-07-11T13:08:29.994Z,12.35
2018-07-11T13:10:59.700Z,10.00
2018-07-11T13:13:28.631Z,9.80
2018-07-11T13:15:57.972Z,10.98
2018-07-11T13:18:26.957Z,11.15
2018-07-11T13:20:56.558Z,12.10
2018-07-11T13:23:25.746Z,11.10
2018-07-11T13:25:54.674Z,10.32
2018-07-11T13:28:23.620Z,10.40
2018-07-11T13:30:52.605Z,12.37
2018-07-11T13:33:21.691Z,12.10
2018-07-11T13:35:50.804Z,10.98
2018-07-11T13:38:20.002Z,11.40
2018-07-11T13:40:48.913Z,11.68
2018-07-11T13:43:17.808Z,14.18
2018-07-11T13:45:46.905Z,14.05
2018-07-11T13:48:16.929Z,14.43
2018-07-11T13:50:45.885Z,16.35
2018-07-11T13:53:15.136Z,23.05
2018-07-11T13:55:44.593Z,16.00
2018-07-11T13:58:13.699Z,14.10
2018-07-11T14:00:42.889Z,14.80
2018-07-11T14:03:12.031Z,13.78
2018-07-11T14:05:41.809Z,12.60
2018-07-11T14:08:11.064Z,13.83
2018-07-11T14:10:40.233Z,15.13
2018-07-11T14:13:09.472Z,12.75
2018-07-11T14:15:38.580Z,10.13
2018-07-11T14:18:07.756Z,9.83
2018-07-11T14:20:36.937Z,9.80
2018-07-11T14:23:08.140Z,9.38
2018-07-11T14:25:39.658Z,8.88
2018-07-11T14:28:09.179Z,11.45
2018-07-11T14:30:39.832Z,11.55
2018-07-11T14:33:09.853Z,11.18
2018-07-11T14:35:38.806Z,10.15
2018-07-11T14:38:07.701Z,12.50
2018-07-11T14:40:36.657Z,12.25
2018-07-11T14:43:05.603Z,11.30
2018-07-11T14:45:34.768Z,13.98
2018-07-11T14:48:10.541Z,13.30
2018-07-11T14:50:39.792Z,11.63
2018-07-11T14:53:08.797Z,11.97
2018-07-11T14:55:37.962Z,14.83
2018-07-11T14:58:07.851Z,12.82
2018-07-11T15:00:37.109Z,10.23
2018-07-11T15:03:06.348Z,12.47
2018-07-11T15:05:35.563Z,11.43
2018-07-11T15:08:05.129Z,10.13
2018-07-11T15:10:34.487Z,15.85
2018-07-11T15:13:03.868Z,9.45
2018-07-11T15:15:33.244Z,10.55
2018-07-11T15:18:02.290Z,9.25
2018-07-11T15:20:32.121Z,10.25
2018-07-11T15:23:01.393Z,11.12
2018-07-11T15:25:30.725Z,10.45
2018-07-11T15:27:59.764Z,9.93
2018-07-11T15:30:28.948Z,12.07
2018-07-11T15:32:58.287Z,11.95
2018-07-11T15:35:27.448Z,10.88
2018-07-11T15:37:56.671Z,10.68
2018-07-11T15:40:26.028Z,10.75
2018-07-11T15:42:55.216Z,9.78
2018-07-11T15:45:24.316Z,10.45
2018-07-11T15:47:53.305Z,11.70
2018-07-11T15:50:23.133Z,10.88
2018-07-11T15:52:51.973Z,12.25
2018-07-11T15:55:21.927Z,14.93
2018-07-11T15:57:51.774Z,13.93
2018-07-11T16:00:24.579Z,14.23
2018-07-11T16:02:53.642Z,15.10
2018-07-11T16:05:24.346Z,14.25
2018-07-11T16:07:54.675Z,13.62
2018-07-11T16:10:30.912Z,12.93
2018-07-11T16:13:00.820Z,12.80
2018-07-11T16:15:30.476Z,15.28
2018-07-11T16:17:59.749Z,16.05
2018-07-11T16:20:29.039Z,13.70
2018-07-11T16:22:58.161Z,14.40
2018-07-11T16:25:27.613Z,14.13
2018-07-11T16:27:57.785Z,14.13
2018-07-11T16:30:27.078Z,12.88
2018-07-11T16:32:56.114Z,14.75
2018-07-11T16:35:25.362Z,15.68
2018-07-11T16:37:55.147Z,14.15
2018-07-11T16:40:24.589Z,12.90
2018-07-11T16:42:54.073Z,13.75
2018-07-11T16:45:23.167Z,13.40
2018-07-11T16:47:52.279Z,13.78
2018-07-11T16:50:21.571Z,21.50
2018-07-11T16:52:51.253Z,19.70
2018-07-11T16:55:20.674Z,21.73
2018-07-11T16:57:51.191Z,21.10
2018-07-11T17:00:24.969Z,16.77
2018-07-11T17:03:01.441Z,19.32
2018-07-11T17:06:33.052Z,13.78
2018-07-11T17:09:02.173Z,15.78
2018-07-11T17:11:31.248Z,14.58
2018-07-11T17:14:03.304Z,15.20
2018-07-11T17:17:06.544Z,14.23
2018-07-11T17:19:51.224Z,14.50
2018-07-11T17:22:25.926Z,13.95
2018-07-11T17:24:55.119Z,16.10
2018-07-11T17:27:24.899Z,17.40
2018-07-11T17:30:00.116Z,16.62
2018-07-11T17:32:30.055Z,15.68
2018-07-11T17:34:59.400Z,17.30
2018-07-11T17:37:43.429Z,18.35
2018-07-11T17:40:13.496Z,19.77
2018-07-11T17:42:44.410Z,20.35
2018-07-11T17:45:19.838Z,15.23
2018-07-11T17:48:00.087Z,16.25
2018-07-11T17:50:30.076Z,15.70
2018-07-11T17:53:09.229Z,13.30
2018-07-11T17:56:01.333Z,15.55
2018-07-11T17:58:53.594Z,13.28
2018-07-11T18:01:29.676Z,14.07
2018-07-11T18:04:09.772Z,13.58
2018-07-11T18:07:21.296Z,14.93
2018-07-11T18:10:01.756Z,14.20
2018-07-11T18:12:40.601Z,15.45
2018-07-11T18:15:19.175Z,13.93
2018-07-11T18:18:00.816Z,14.43
2018-07-11T18:20:40.629Z,14.10
2018-07-11T18:23:19.984Z,15.35
2018-07-11T18:28:01.028Z,13.35
2018-07-11T18:30:37.304Z,14.80
2018-07-11T18:33:27.806Z,15.65
2018-07-11T18:37:10.173Z,14.38
2018-07-11T18:41:16.862Z,15.45
2018-07-11T18:43:54.364Z,15.45
2018-07-11T18:46:34.569Z,16.10
2018-07-11T18:50:52.137Z,15.38
2018-07-11T18:53:36.622Z,17.40
2018-07-11T18:57:12.179Z,16.30
2018-07-11T18:59:52.803Z,15.65
2018-07-11T19:02:29.403Z,19.12
2018-07-11T19:05:11.845Z,17.75
2018-07-11T19:08:00.972Z,18.87
2018-07-11T19:10:45.228Z,17.92
2018-07-11T19:13:25.553Z,18.60
2018-07-11T19:15:58.670Z,18.60
2018-07-11T19:19:24.279Z,17.37
2018-07-11T19:21:59.323Z,14.95
2018-07-11T19:25:37.322Z,17.85
2018-07-11T19:28:21.260Z,17.42
2018-07-11T19:30:57.440Z,22.13
2018-07-11T19:34:37.353Z,18.62
2018-07-11T19:37:18.242Z,20.43
2018-07-11T19:39:58.089Z,17.37
2018-07-11T19:42:37.845Z,16.55
2018-07-11T19:45:15.626Z,18.52
2018-07-11T19:47:57.609Z,20.15
2018-07-11T19:50:33.738Z,18.23
2018-07-11T19:54:14.712Z,17.05
2018-07-11T19:56:45.445Z,18.40
2018-07-11T19:59:14.748Z,16.75
2018-07-11T20:01:43.980Z,20.77
2018-07-11T20:04:14.056Z,19.25
2018-07-11T20:06:44.055Z,18.30
2018-07-11T20:09:14.222Z,21.07
2018-07-11T20:11:43.223Z,18.50
2018-07-11T20:14:12.508Z,18.62
2018-07-11T20:16:42.163Z,18.02
2018-07-11T20:19:11.318Z,19.45
2018-07-11T20:21:40.411Z,17.77
2018-07-11T20:24:10.641Z,19.85
2018-07-11T20:26:39.773Z,23.52
2018-07-11T20:29:08.511Z,19.85
2018-07-11T20:31:37.610Z,17.52
2018-07-11T20:34:06.699Z,17.77
2018-07-11T20:36:35.975Z,16.95
2018-07-11T20:39:05.292Z,18.10
2018-07-11T20:41:34.348Z,16.12
2018-07-11T20:44:03.734Z,18.55
2018-07-11T20:46:34.421Z,16.20
2018-07-11T20:49:08.652Z,15.58
2018-07-11T20:51:37.722Z,17.30
2018-07-11T20:54:06.596Z,16.82
2018-07-11T20:56:35.473Z,15.95
2018-07-11T20:59:15.384Z,16.60
2018-07-11T21:04:02.778Z,16.40
2018-07-11T21:06:41.684Z,16.10
2018-07-11T21:09:22.776Z,16.95
2018-07-11T21:13:04.060Z,17.00
2018-07-11T21:15:53.016Z,18.73
2018-07-11T21:18:32.351Z,17.35
2018-07-11T21:21:01.673Z,18.70
2018-07-11T21:23:31.155Z,18.73
2018-07-11T21:26:00.920Z,17.85
2018-07-11T21:28:30.742Z,16.25
2018-07-11T21:30:59.755Z,17.65
2018-07-11T21:33:29.113Z,15.68
2018-07-11T21:35:59.431Z,15.48
2018-07-11T21:38:28.964Z,14.15
2018-07-11T21:40:58.249Z,13.22
2018-07-11T21:43:27.352Z,16.10
2018-07-11T21:45:56.467Z,15.95
2018-07-11T21:48:26.487Z,15.90
2018-07-11T21:50:55.566Z,16.52
2018-07-11T21:53:24.926Z,19.15
2018-07-11T21:55:54.039Z,22.62
2018-07-11T21:58:23.464Z,23.95
2018-07-11T22:00:52.544Z,21.15
2018-07-11T22:03:21.543Z,19.98
2018-07-11T22:05:50.489Z,23.02
2018-07-11T22:08:19.373Z,26.40
2018-07-11T22:10:48.295Z,30.60
2018-07-11T22:13:17.160Z,23.02
2018-07-11T22:15:46.112Z,23.50
2018-07-11T22:18:26.369Z,23.25
2018-07-11T22:20:54.728Z,24.05
2018-07-11T22:23:23.149Z,23.38
2018-07-11T22:25:50.763Z,21.60
2018-07-11T22:28:18.425Z,24.92
2018-07-11T22:30:46.188Z,23.10
2018-07-11T22:33:13.827Z,21.35
2018-07-11T22:35:41.519Z,22.90
2018-07-11T22:38:09.365Z,24.02
2018-07-11T22:40:37.449Z,22.62
2018-07-11T22:43:05.527Z,21.40
2018-07-11T22:45:33.370Z,22.27
2018-07-11T22:48:01.133Z,23.98
2018-07-11T22:50:29.202Z,20.57
2018-07-11T22:52:56.973Z,27.73
2018-07-11T22:55:24.876Z,23.85
2018-07-11T22:57:52.855Z,24.15
2018-07-11T23:00:20.655Z,27.42
2018-07-11T23:02:48.419Z,29.32
2018-07-11T23:05:16.286Z,26.30
2018-07-11T23:07:44.044Z,26.85
2018-07-11T23:10:11.769Z,30.40
2018-07-11T23:12:39.469Z,28.47
2018-07-11T23:15:07.231Z,27.55
2018-07-11T23:17:34.836Z,27.05
2018-07-11T23:20:02.469Z,31.55
2018-07-11T23:22:30.046Z,34.88
2018-07-11T23:24:57.636Z,28.67
2018-07-11T23:27:25.254Z,25.85
2018-07-11T23:29:52.841Z,27.70
2018-07-11T23:32:20.538Z,27.37
2018-07-11T23:34:48.708Z,30.85
2018-07-11T23:37:16.989Z,36.38
2018-07-11T23:39:44.643Z,30.02
2018-07-11T23:42:12.405Z,32.17
2018-07-11T23:44:40.165Z,29.85
2018-07-11T23:47:07.928Z,28.20
2018-07-11T23:49:35.972Z,29.92
2018-07-11T23:52:04.068Z,26.73
2018-07-11T23:54:31.829Z,28.73
2018-07-11T23:56:59.590Z,30.50
2018-07-11T23:59:27.359Z,27.70
